sensor_id;sensor_type;location;lat;lon;timestamp;P1;durP1;ratioP1;P2;durP2;ratioP2
72065;SDS011;59939;52.516;13.420;2022-09-29T00:02:35;18.73;;;7.40;;
72065;SDS011;59939;52.516;13.420;2022-09-29T00:05:45;17.73;;;7.90;;
72065;SDS011;59939;52.516;13.420;2022-09-29T00:08:56;20.33;;;8.87;;
72065;SDS011;59939;52.516;13.420;2022-09-29T00:12:00;19.70;;;9.63;;
72065;SDS011;59939;52.516;13.420;2022-09-29T00:15:05;19.57;;;9.03;;
72065;SDS011;59939;52.516;13.420;2022-09-29T00:18:10;19.07;;;8.53;;
72065;SDS011;59939;52.516;13.420;2022-09-29T00:21:18;20.27;;;9.20;;
72065;SDS011;59939;52.516;13.420;2022-09-29T00:24:22;18.17;;;8.17;;
72065;SDS011;59939;52.516;13.420;2022-09-29T00:27:30;21.13;;;9.53;;
72065;SDS011;59939;52.516;13.420;2022-09-29T00:30:34;22.83;;;9.57;;
72065;SDS011;59939;52.516;13.420;2022-09-29T00:33:38;22.83;;;9.87;;
72065;SDS011;59939;52.516;13.420;2022-09-29T00:36:44;22.73;;;10.60;;
72065;SDS011;59939;52.516;13.420;2022-09-29T00:39:48;20.30;;;9.03;;
72065;SDS011;59939;52.516;13.420;2022-09-29T00:42:53;20.90;;;9.90;;
72065;SDS011;59939;52.516;13.420;2022-09-29T00:46:05;19.63;;;9.73;;
72065;SDS011;59939;52.516;13.420;2022-09-29T00:49:14;20.43;;;9.47;;
72065;SDS011;59939;52.516;13.420;2022-09-29T00:52:37;23.37;;;9.13;;
72065;SDS011;59939;52.516;13.420;2022-09-29T00:55:47;20.80;;;8.90;;
72065;SDS011;59939;52.516;13.420;2022-09-29T00:59:11;22.33;;;10.60;;
72065;SDS011;59939;52.516;13.420;2022-09-29T01:02:19;22.53;;;10.23;;
72065;SDS011;59939;52.516;13.420;2022-09-29T01:05:34;20.50;;;10.20;;
72065;SDS011;59939;52.516;13.420;2022-09-29T01:08:50;21.93;;;9.90;;
72065;SDS011;59939;52.516;13.420;2022-09-29T01:12:00;20.27;;;9.60;;
72065;SDS011;59939;52.516;13.420;2022-09-29T01:15:07;21.10;;;10.23;;
72065;SDS011;59939;52.516;13.420;2022-09-29T01:18:13;23.53;;;11.20;;
72065;SDS011;59939;52.516;13.420;2022-09-29T01:28:16;23.00;;;10.57;;
72065;SDS011;59939;52.516;13.420;2022-09-29T01:35:26;22.03;;;9.80;;
72065;SDS011;59939;52.516;13.420;2022-09-29T01:42:21;21.50;;;9.13;;
72065;SDS011;59939;52.516;13.420;2022-09-29T01:46:14;19.83;;;8.40;;
72065;SDS011;59939;52.516;13.420;2022-09-29T01:49:23;22.23;;;10.77;;
72065;SDS011;59939;52.516;13.420;2022-09-29T01:52:36;23.83;;;10.80;;
72065;SDS011;59939;52.516;13.420;2022-09-29T01:55:48;23.10;;;9.07;;
72065;SDS011;59939;52.516;13.420;2022-09-29T01:58:56;26.37;;;10.77;;
72065;SDS011;59939;52.516;13.420;2022-09-29T02:02:06;24.30;;;11.13;;
72065;SDS011;59939;52.516;13.420;2022-09-29T02:05:24;23.67;;;11.27;;
72065;SDS011;59939;52.516;13.420;2022-09-29T02:08:53;26.17;;;9.70;;
72065;SDS011;59939;52.516;13.420;2022-09-29T02:11:59;21.87;;;10.57;;
72065;SDS011;59939;52.516;13.420;2022-09-29T02:15:06;23.87;;;12.67;;
72065;SDS011;59939;52.516;13.420;2022-09-29T02:18:15;24.40;;;11.43;;
72065;SDS011;59939;52.516;13.420;2022-09-29T02:21:38;26.47;;;11.43;;
72065;SDS011;59939;52.516;13.420;2022-09-29T02:24:42;24.00;;;10.47;;
72065;SDS011;59939;52.516;13.420;2022-09-29T02:27:49;23.43;;;11.23;;
72065;SDS011;59939;52.516;13.420;2022-09-29T02:30:53;24.33;;;11.07;;
72065;SDS011;59939;52.516;13.420;2022-09-29T02:33:57;24.70;;;11.17;;
72065;SDS011;59939;52.516;13.420;2022-09-29T02:37:26;23.60;;;10.63;;
72065;SDS011;59939;52.516;13.420;2022-09-29T02:44:14;25.80;;;12.87;;
72065;SDS011;59939;52.516;13.420;2022-09-29T02:54:59;27.70;;;12.00;;
72065;SDS011;59939;52.516;13.420;2022-09-29T02:58:37;27.93;;;12.73;;
72065;SDS011;59939;52.516;13.420;2022-09-29T03:01:51;24.10;;;11.20;;
72065;SDS011;59939;52.516;13.420;2022-09-29T03:04:57;29.07;;;13.43;;
72065;SDS011;59939;52.516;13.420;2022-09-29T03:08:04;25.07;;;11.00;;
72065;SDS011;59939;52.516;13.420;2022-09-29T03:11:16;32.63;;;15.60;;
72065;SDS011;59939;52.516;13.420;2022-09-29T03:14:20;31.03;;;14.70;;
72065;SDS011;59939;52.516;13.420;2022-09-29T03:17:23;30.80;;;14.17;;
72065;SDS011;59939;52.516;13.420;2022-09-29T03:20:30;31.77;;;15.07;;
72065;SDS011;59939;52.516;13.420;2022-09-29T03:23:34;31.77;;;14.90;;
72065;SDS011;59939;52.516;13.420;2022-09-29T03:26:40;30.57;;;14.90;;
72065;SDS011;59939;52.516;13.420;2022-09-29T03:29:47;29.77;;;14.80;;
72065;SDS011;59939;52.516;13.420;2022-09-29T03:32:52;32.40;;;13.87;;
72065;SDS011;59939;52.516;13.420;2022-09-29T03:35:56;28.10;;;13.83;;
72065;SDS011;59939;52.516;13.420;2022-09-29T03:39:00;31.23;;;14.13;;
72065;SDS011;59939;52.516;13.420;2022-09-29T03:42:04;32.23;;;14.77;;
72065;SDS011;59939;52.516;13.420;2022-09-29T03:45:07;31.63;;;14.27;;
72065;SDS011;59939;52.516;13.420;2022-09-29T03:48:11;30.00;;;14.37;;
72065;SDS011;59939;52.516;13.420;2022-09-29T03:51:18;35.53;;;16.80;;
72065;SDS011;59939;52.516;13.420;2022-09-29T03:54:21;32.63;;;15.73;;
72065;SDS011;59939;52.516;13.420;2022-09-29T03:57:27;29.93;;;14.73;;
72065;SDS011;59939;52.516;13.420;2022-09-29T04:00:33;30.17;;;15.03;;
72065;SDS011;59939;52.516;13.420;2022-09-29T04:03:38;29.50;;;14.60;;
72065;SDS011;59939;52.516;13.420;2022-09-29T04:06:49;32.37;;;14.87;;
72065;SDS011;59939;52.516;13.420;2022-09-29T04:09:53;30.03;;;15.30;;
72065;SDS011;59939;52.516;13.420;2022-09-29T04:12:57;29.37;;;14.67;;
72065;SDS011;59939;52.516;13.420;2022-09-29T04:16:02;31.13;;;14.10;;
72065;SDS011;59939;52.516;13.420;2022-09-29T04:19:10;32.03;;;15.63;;
72065;SDS011;59939;52.516;13.420;2022-09-29T04:22:15;34.67;;;15.30;;
72065;SDS011;59939;52.516;13.420;2022-09-29T04:25:21;28.43;;;15.07;;
72065;SDS011;59939;52.516;13.420;2022-09-29T04:28:25;30.30;;;14.00;;
72065;SDS011;59939;52.516;13.420;2022-09-29T04:31:30;29.73;;;14.23;;
72065;SDS011;59939;52.516;13.420;2022-09-29T04:34:34;29.87;;;14.50;;
72065;SDS011;59939;52.516;13.420;2022-09-29T04:37:46;28.30;;;15.00;;
72065;SDS011;59939;52.516;13.420;2022-09-29T04:40:53;30.87;;;14.83;;
72065;SDS011;59939;52.516;13.420;2022-09-29T04:43:57;29.10;;;15.57;;
72065;SDS011;59939;52.516;13.420;2022-09-29T04:47:01;28.30;;;13.40;;
72065;SDS011;59939;52.516;13.420;2022-09-29T04:50:05;30.67;;;14.67;;
72065;SDS011;59939;52.516;13.420;2022-09-29T04:53:12;30.30;;;14.97;;
72065;SDS011;59939;52.516;13.420;2022-09-29T04:56:19;30.50;;;14.30;;
72065;SDS011;59939;52.516;13.420;2022-09-29T04:59:23;30.37;;;15.50;;
72065;SDS011;59939;52.516;13.420;2022-09-29T05:02:27;28.50;;;14.83;;
72065;SDS011;59939;52.516;13.420;2022-09-29T05:05:31;27.70;;;14.43;;
72065;SDS011;59939;52.516;13.420;2022-09-29T05:08:37;29.27;;;14.57;;
72065;SDS011;59939;52.516;13.420;2022-09-29T05:11:41;29.20;;;14.80;;
72065;SDS011;59939;52.516;13.420;2022-09-29T05:14:59;31.83;;;16.47;;
72065;SDS011;59939;52.516;13.420;2022-09-29T05:18:03;32.07;;;15.20;;
72065;SDS011;59939;52.516;13.420;2022-09-29T05:21:08;30.97;;;13.63;;
72065;SDS011;59939;52.516;13.420;2022-09-29T05:24:29;27.60;;;14.47;;
72065;SDS011;59939;52.516;13.420;2022-09-29T05:27:36;30.13;;;14.43;;
72065;SDS011;59939;52.516;13.420;2022-09-29T05:30:41;29.70;;;14.97;;
72065;SDS011;59939;52.516;13.420;2022-09-29T05:33:46;33.03;;;15.03;;
72065;SDS011;59939;52.516;13.420;2022-09-29T05:36:58;29.93;;;13.90;;
72065;SDS011;59939;52.516;13.420;2022-09-29T05:40:02;29.60;;;13.77;;
72065;SDS011;59939;52.516;13.420;2022-09-29T05:43:07;29.87;;;13.97;;
72065;SDS011;59939;52.516;13.420;2022-09-29T05:46:14;32.03;;;15.13;;
72065;SDS011;59939;52.516;13.420;2022-09-29T05:49:21;33.83;;;13.87;;
72065;SDS011;59939;52.516;13.420;2022-09-29T05:52:25;27.13;;;14.63;;
72065;SDS011;59939;52.516;13.420;2022-09-29T05:55:29;30.83;;;14.07;;
72065;SDS011;59939;52.516;13.420;2022-09-29T05:58:34;29.27;;;14.50;;
72065;SDS011;59939;52.516;13.420;2022-09-29T06:01:46;28.27;;;13.87;;
72065;SDS011;59939;52.516;13.420;2022-09-29T06:04:50;29.03;;;13.00;;
72065;SDS011;59939;52.516;13.420;2022-09-29T06:07:54;30.70;;;13.70;;
72065;SDS011;59939;52.516;13.420;2022-09-29T06:11:02;28.27;;;12.30;;
72065;SDS011;59939;52.516;13.420;2022-09-29T06:14:14;28.50;;;13.30;;
72065;SDS011;59939;52.516;13.420;2022-09-29T06:17:21;28.47;;;12.47;;
72065;SDS011;59939;52.516;13.420;2022-09-29T06:20:25;25.13;;;12.00;;
72065;SDS011;59939;52.516;13.420;2022-09-29T06:23:29;29.43;;;13.33;;
72065;SDS011;59939;52.516;13.420;2022-09-29T06:26:33;30.17;;;12.67;;
72065;SDS011;59939;52.516;13.420;2022-09-29T06:29:37;26.00;;;12.00;;
72065;SDS011;59939;52.516;13.420;2022-09-29T06:32:41;27.70;;;13.87;;
72065;SDS011;59939;52.516;13.420;2022-09-29T06:35:48;28.17;;;13.33;;
72065;SDS011;59939;52.516;13.420;2022-09-29T06:39:15;31.03;;;14.17;;
72065;SDS011;59939;52.516;13.420;2022-09-29T06:42:19;24.97;;;12.33;;
72065;SDS011;59939;52.516;13.420;2022-09-29T06:45:38;28.77;;;13.60;;
72065;SDS011;59939;52.516;13.420;2022-09-29T06:48:44;28.83;;;13.07;;
72065;SDS011;59939;52.516;13.420;2022-09-29T06:51:52;28.53;;;14.20;;
72065;SDS011;59939;52.516;13.420;2022-09-29T06:54:56;31.83;;;14.57;;
72065;SDS011;59939;52.516;13.420;2022-09-29T06:58:07;29.00;;;13.73;;
72065;SDS011;59939;52.516;13.420;2022-09-29T07:01:12;26.17;;;11.77;;
72065;SDS011;59939;52.516;13.420;2022-09-29T07:04:16;31.93;;;14.13;;
72065;SDS011;59939;52.516;13.420;2022-09-29T07:07:21;33.73;;;16.63;;
72065;SDS011;59939;52.516;13.420;2022-09-29T07:10:28;31.20;;;13.93;;
72065;SDS011;59939;52.516;13.420;2022-09-29T07:13:41;33.50;;;14.87;;
72065;SDS011;59939;52.516;13.420;2022-09-29T07:16:45;31.63;;;14.60;;
72065;SDS011;59939;52.516;13.420;2022-09-29T07:19:51;34.43;;;15.63;;
72065;SDS011;59939;52.516;13.420;2022-09-29T07:22:59;29.20;;;14.40;;
72065;SDS011;59939;52.516;13.420;2022-09-29T07:26:17;33.07;;;14.97;;
72065;SDS011;59939;52.516;13.420;2022-09-29T07:29:23;34.33;;;16.13;;
72065;SDS011;59939;52.516;13.420;2022-09-29T07:32:28;34.47;;;16.80;;
72065;SDS011;59939;52.516;13.420;2022-09-29T07:35:35;32.27;;;15.33;;
72065;SDS011;59939;52.516;13.420;2022-09-29T07:38:46;32.50;;;15.20;;
72065;SDS011;59939;52.516;13.420;2022-09-29T07:41:51;36.87;;;16.07;;
72065;SDS011;59939;52.516;13.420;2022-09-29T07:44:55;33.00;;;15.73;;
72065;SDS011;59939;52.516;13.420;2022-09-29T07:48:00;32.60;;;15.07;;
72065;SDS011;59939;52.516;13.420;2022-09-29T07:51:14;32.63;;;15.90;;
72065;SDS011;59939;52.516;13.420;2022-09-29T07:54:20;30.93;;;15.17;;
72065;SDS011;59939;52.516;13.420;2022-09-29T07:57:25;35.70;;;16.73;;
72065;SDS011;59939;52.516;13.420;2022-09-29T08:00:30;35.53;;;16.10;;
72065;SDS011;59939;52.516;13.420;2022-09-29T08:03:37;32.70;;;15.67;;
72065;SDS011;59939;52.516;13.420;2022-09-29T08:06:45;36.87;;;18.53;;
72065;SDS011;59939;52.516;13.420;2022-09-29T08:09:52;33.63;;;17.70;;
72065;SDS011;59939;52.516;13.420;2022-09-29T08:12:58;35.97;;;17.03;;
72065;SDS011;59939;52.516;13.420;2022-09-29T08:16:03;36.60;;;16.40;;
72065;SDS011;59939;52.516;13.420;2022-09-29T08:19:11;33.00;;;16.83;;
72065;SDS011;59939;52.516;13.420;2022-09-29T08:22:16;33.37;;;16.63;;
72065;SDS011;59939;52.516;13.420;2022-09-29T08:25:34;30.33;;;15.57;;
72065;SDS011;59939;52.516;13.420;2022-09-29T08:28:40;30.23;;;15.90;;
72065;SDS011;59939;52.516;13.420;2022-09-29T08:31:44;30.47;;;16.00;;
72065;SDS011;59939;52.516;13.420;2022-09-29T08:34:50;32.07;;;16.60;;
72065;SDS011;59939;52.516;13.420;2022-09-29T08:37:54;29.37;;;15.30;;
72065;SDS011;59939;52.516;13.420;2022-09-29T08:41:02;27.57;;;14.50;;
72065;SDS011;59939;52.516;13.420;2022-09-29T08:44:10;27.30;;;14.93;;
72065;SDS011;59939;52.516;13.420;2022-09-29T08:47:35;31.43;;;14.43;;
72065;SDS011;59939;52.516;13.420;2022-09-29T08:50:50;27.80;;;13.90;;
72065;SDS011;59939;52.516;13.420;2022-09-29T08:54:10;28.80;;;14.07;;
72065;SDS011;59939;52.516;13.420;2022-09-29T08:57:37;25.37;;;13.63;;
72065;SDS011;59939;52.516;13.420;2022-09-29T09:00:45;25.47;;;13.57;;
72065;SDS011;59939;52.516;13.420;2022-09-29T09:04:05;24.73;;;13.13;;
72065;SDS011;59939;52.516;13.420;2022-09-29T09:11:05;28.40;;;14.33;;
72065;SDS011;59939;52.516;13.420;2022-09-29T09:14:43;25.43;;;13.07;;
72065;SDS011;59939;52.516;13.420;2022-09-29T09:18:05;25.92;;;12.80;;
72065;SDS011;59939;52.516;13.420;2022-09-29T09:21:27;27.27;;;13.07;;
72065;SDS011;59939;52.516;13.420;2022-09-29T09:31:32;27.35;;;12.95;;
72065;SDS011;59939;52.516;13.420;2022-09-29T09:35:33;27.43;;;13.77;;
72065;SDS011;59939;52.516;13.420;2022-09-29T09:42:14;24.60;;;13.02;;
72065;SDS011;59939;52.516;13.420;2022-09-29T09:45:29;26.65;;;13.82;;
72065;SDS011;59939;52.516;13.420;2022-09-29T09:48:44;22.20;;;12.57;;
72065;SDS011;59939;52.516;13.420;2022-09-29T09:52:13;25.35;;;12.63;;
72065;SDS011;59939;52.516;13.420;2022-09-29T09:55:25;21.42;;;11.35;;
72065;SDS011;59939;52.516;13.420;2022-09-29T10:02:01;20.20;;;10.48;;
72065;SDS011;59939;52.516;13.420;2022-09-29T10:05:09;22.92;;;10.82;;
72065;SDS011;59939;52.516;13.420;2022-09-29T10:08:27;18.70;;;10.27;;
72065;SDS011;59939;52.516;13.420;2022-09-29T10:11:33;20.92;;;10.43;;
72065;SDS011;59939;52.516;13.420;2022-09-29T10:14:37;18.70;;;9.07;;
72065;SDS011;59939;52.516;13.420;2022-09-29T10:17:43;21.08;;;10.52;;
72065;SDS011;59939;52.516;13.420;2022-09-29T10:20:52;18.15;;;9.68;;
72065;SDS011;59939;52.516;13.420;2022-09-29T10:24:04;21.77;;;10.10;;
72065;SDS011;59939;52.516;13.420;2022-09-29T10:27:24;18.80;;;10.23;;
72065;SDS011;59939;52.516;13.420;2022-09-29T10:30:32;19.63;;;9.05;;
72065;SDS011;59939;52.516;13.420;2022-09-29T10:33:44;18.10;;;8.73;;
72065;SDS011;59939;52.516;13.420;2022-09-29T10:36:52;18.80;;;8.82;;
72065;SDS011;59939;52.516;13.420;2022-09-29T10:43:35;16.30;;;7.72;;
72065;SDS011;59939;52.516;13.420;2022-09-29T10:46:51;16.65;;;8.85;;
72065;SDS011;59939;52.516;13.420;2022-09-29T10:53:28;18.15;;;7.63;;
72065;SDS011;59939;52.516;13.420;2022-09-29T10:56:47;15.95;;;8.27;;
72065;SDS011;59939;52.516;13.420;2022-09-29T10:59:52;15.77;;;7.90;;
72065;SDS011;59939;52.516;13.420;2022-09-29T11:06:39;17.42;;;9.35;;
72065;SDS011;59939;52.516;13.420;2022-09-29T11:09:46;18.60;;;8.75;;
72065;SDS011;59939;52.516;13.420;2022-09-29T11:12:50;19.77;;;8.70;;
72065;SDS011;59939;52.516;13.420;2022-09-29T11:16:01;16.33;;;7.90;;
72065;SDS011;59939;52.516;13.420;2022-09-29T11:19:10;16.60;;;7.43;;
72065;SDS011;59939;52.516;13.420;2022-09-29T11:22:24;15.85;;;6.70;;
72065;SDS011;59939;52.516;13.420;2022-09-29T11:25:45;15.57;;;6.95;;
72065;SDS011;59939;52.516;13.420;2022-09-29T11:36:20;17.73;;;7.65;;
72065;SDS011;59939;52.516;13.420;2022-09-29T11:39:44;15.52;;;6.38;;
72065;SDS011;59939;52.516;13.420;2022-09-29T11:42:58;15.32;;;5.38;;
72065;SDS011;59939;52.516;13.420;2022-09-29T11:46:33;13.73;;;5.97;;
72065;SDS011;59939;52.516;13.420;2022-09-29T11:56:58;15.93;;;6.53;;
72065;SDS011;59939;52.516;13.420;2022-09-29T12:07:31;16.63;;;6.32;;
72065;SDS011;59939;52.516;13.420;2022-09-29T12:17:47;16.75;;;5.90;;
72065;SDS011;59939;52.516;13.420;2022-09-29T12:20:55;12.80;;;5.13;;
72065;SDS011;59939;52.516;13.420;2022-09-29T12:24:15;14.52;;;5.78;;
72065;SDS011;59939;52.516;13.420;2022-09-29T12:30:44;15.00;;;5.90;;
72065;SDS011;59939;52.516;13.420;2022-09-29T12:37:33;15.98;;;6.47;;
72065;SDS011;59939;52.516;13.420;2022-09-29T12:40:45;12.45;;;5.40;;
72065;SDS011;59939;52.516;13.420;2022-09-29T12:44:26;15.45;;;6.28;;
72065;SDS011;59939;52.516;13.420;2022-09-29T12:51:52;13.65;;;6.43;;
72065;SDS011;59939;52.516;13.420;2022-09-29T12:55:00;14.05;;;5.93;;
72065;SDS011;59939;52.516;13.420;2022-09-29T12:58:09;14.82;;;5.72;;
72065;SDS011;59939;52.516;13.420;2022-09-29T13:01:33;13.48;;;5.25;;
72065;SDS011;59939;52.516;13.420;2022-09-29T13:04:58;14.77;;;5.38;;
72065;SDS011;59939;52.516;13.420;2022-09-29T13:11:47;13.52;;;5.20;;
72065;SDS011;59939;52.516;13.420;2022-09-29T13:15:01;12.95;;;4.82;;
72065;SDS011;59939;52.516;13.420;2022-09-29T13:18:30;8.85;;;3.60;;
72065;SDS011;59939;52.516;13.420;2022-09-29T13:29:21;9.40;;;3.50;;
72065;SDS011;59939;52.516;13.420;2022-09-29T13:32:26;9.68;;;3.70;;
72065;SDS011;59939;52.516;13.420;2022-09-29T13:35:42;9.75;;;3.33;;
72065;SDS011;59939;52.516;13.420;2022-09-29T13:38:50;11.60;;;4.35;;
72065;SDS011;59939;52.516;13.420;2022-09-29T13:42:26;9.82;;;3.60;;
72065;SDS011;59939;52.516;13.420;2022-09-29T13:45:44;9.18;;;3.25;;
72065;SDS011;59939;52.516;13.420;2022-09-29T13:48:50;9.07;;;3.42;;
72065;SDS011;59939;52.516;13.420;2022-09-29T13:58:56;9.90;;;3.50;;
72065;SDS011;59939;52.516;13.420;2022-09-29T14:05:39;9.57;;;3.90;;
72065;SDS011;59939;52.516;13.420;2022-09-29T14:12:18;10.80;;;3.58;;
72065;SDS011;59939;52.516;13.420;2022-09-29T14:15:28;9.75;;;3.60;;
72065;SDS011;59939;52.516;13.420;2022-09-29T14:18:45;30.95;;;8.85;;
72065;SDS011;59939;52.516;13.420;2022-09-29T14:21:57;14.15;;;4.22;;
72065;SDS011;59939;52.516;13.420;2022-09-29T14:28:19;8.77;;;3.05;;
72065;SDS011;59939;52.516;13.420;2022-09-29T14:31:28;9.20;;;3.45;;
72065;SDS011;59939;52.516;13.420;2022-09-29T14:34:34;7.75;;;3.10;;
72065;SDS011;59939;52.516;13.420;2022-09-29T14:37:47;8.98;;;3.08;;
72065;SDS011;59939;52.516;13.420;2022-09-29T14:41:15;6.88;;;2.55;;
72065;SDS011;59939;52.516;13.420;2022-09-29T14:44:29;6.07;;;2.45;;
72065;SDS011;59939;52.516;13.420;2022-09-29T14:48:15;6.97;;;2.88;;
72065;SDS011;59939;52.516;13.420;2022-09-29T14:59:46;8.30;;;2.75;;
72065;SDS011;59939;52.516;13.420;2022-09-29T15:02:53;5.57;;;2.58;;
72065;SDS011;59939;52.516;13.420;2022-09-29T15:06:20;5.30;;;2.40;;
72065;SDS011;59939;52.516;13.420;2022-09-29T15:09:34;6.70;;;2.25;;
72065;SDS011;59939;52.516;13.420;2022-09-29T15:12:46;4.88;;;2.05;;
72065;SDS011;59939;52.516;13.420;2022-09-29T15:15:56;4.82;;;2.20;;
72065;SDS011;59939;52.516;13.420;2022-09-29T15:19:10;6.25;;;2.40;;
72065;SDS011;59939;52.516;13.420;2022-09-29T15:25:46;7.05;;;2.80;;
72065;SDS011;59939;52.516;13.420;2022-09-29T15:28:56;7.60;;;2.80;;
72065;SDS011;59939;52.516;13.420;2022-09-29T15:32:14;4.88;;;2.03;;
72065;SDS011;59939;52.516;13.420;2022-09-29T15:35:25;5.10;;;2.20;;
72065;SDS011;59939;52.516;13.420;2022-09-29T15:38:30;5.45;;;2.17;;
72065;SDS011;59939;52.516;13.420;2022-09-29T15:41:37;7.80;;;3.00;;
72065;SDS011;59939;52.516;13.420;2022-09-29T15:44:46;8.07;;;3.17;;
72065;SDS011;59939;52.516;13.420;2022-09-29T15:48:00;8.25;;;3.03;;
72065;SDS011;59939;52.516;13.420;2022-09-29T15:51:15;8.32;;;3.13;;
72065;SDS011;59939;52.516;13.420;2022-09-29T15:54:30;6.10;;;2.50;;
72065;SDS011;59939;52.516;13.420;2022-09-29T15:57:47;8.80;;;2.60;;
72065;SDS011;59939;52.516;13.420;2022-09-29T16:01:05;10.73;;;3.20;;
72065;SDS011;59939;52.516;13.420;2022-09-29T16:04:11;7.70;;;2.83;;
72065;SDS011;59939;52.516;13.420;2022-09-29T16:07:20;9.75;;;3.35;;
72065;SDS011;59939;52.516;13.420;2022-09-29T16:10:30;7.80;;;2.70;;
72065;SDS011;59939;52.516;13.420;2022-09-29T16:13:38;5.88;;;2.47;;
72065;SDS011;59939;52.516;13.420;2022-09-29T16:16:47;8.10;;;3.47;;
72065;SDS011;59939;52.516;13.420;2022-09-29T16:19:56;7.55;;;3.03;;
72065;SDS011;59939;52.516;13.420;2022-09-29T16:23:17;9.60;;;3.40;;
72065;SDS011;59939;52.516;13.420;2022-09-29T16:29:43;8.77;;;3.10;;
72065;SDS011;59939;52.516;13.420;2022-09-29T16:36:30;11.35;;;4.00;;
72065;SDS011;59939;52.516;13.420;2022-09-29T16:39:40;10.45;;;3.55;;
72065;SDS011;59939;52.516;13.420;2022-09-29T16:42:49;9.18;;;3.20;;
72065;SDS011;59939;52.516;13.420;2022-09-29T16:46:05;9.48;;;3.42;;
72065;SDS011;59939;52.516;13.420;2022-09-29T16:49:15;10.98;;;3.50;;
72065;SDS011;59939;52.516;13.420;2022-09-29T16:52:28;10.13;;;3.88;;
72065;SDS011;59939;52.516;13.420;2022-09-29T16:56:02;10.68;;;3.63;;
72065;SDS011;59939;52.516;13.420;2022-09-29T16:59:11;9.68;;;4.10;;
72065;SDS011;59939;52.516;13.420;2022-09-29T17:02:19;11.32;;;4.25;;
72065;SDS011;59939;52.516;13.420;2022-09-29T17:05:25;11.70;;;4.25;;
72065;SDS011;59939;52.516;13.420;2022-09-29T17:08:30;12.93;;;5.18;;
72065;SDS011;59939;52.516;13.420;2022-09-29T17:11:37;12.53;;;5.07;;
72065;SDS011;59939;52.516;13.420;2022-09-29T17:14:43;12.90;;;4.85;;
72065;SDS011;59939;52.516;13.420;2022-09-29T17:17:51;11.25;;;4.70;;
72065;SDS011;59939;52.516;13.420;2022-09-29T17:20:56;14.82;;;5.82;;
72065;SDS011;59939;52.516;13.420;2022-09-29T17:24:03;14.17;;;5.23;;
72065;SDS011;59939;52.516;13.420;2022-09-29T17:27:07;14.23;;;5.28;;
72065;SDS011;59939;52.516;13.420;2022-09-29T17:30:30;10.98;;;4.18;;
72065;SDS011;59939;52.516;13.420;2022-09-29T17:33:34;14.38;;;5.47;;
72065;SDS011;59939;52.516;13.420;2022-09-29T17:36:38;14.07;;;5.07;;
72065;SDS011;59939;52.516;13.420;2022-09-29T17:39:41;11.90;;;5.45;;
72065;SDS011;59939;52.516;13.420;2022-09-29T17:42:47;11.80;;;5.30;;
72065;SDS011;59939;52.516;13.420;2022-09-29T17:45:53;13.00;;;5.57;;
72065;SDS011;59939;52.516;13.420;2022-09-29T17:49:00;15.23;;;6.60;;
72065;SDS011;59939;52.516;13.420;2022-09-29T17:52:04;13.77;;;6.10;;
72065;SDS011;59939;52.516;13.420;2022-09-29T17:55:12;14.60;;;6.27;;
72065;SDS011;59939;52.516;13.420;2022-09-29T17:58:16;15.38;;;6.60;;
72065;SDS011;59939;52.516;13.420;2022-09-29T18:01:25;14.70;;;6.73;;
72065;SDS011;59939;52.516;13.420;2022-09-29T18:04:31;17.23;;;7.37;;
72065;SDS011;59939;52.516;13.420;2022-09-29T18:07:39;18.00;;;7.77;;
72065;SDS011;59939;52.516;13.420;2022-09-29T18:10:46;16.13;;;7.50;;
72065;SDS011;59939;52.516;13.420;2022-09-29T18:13:53;20.37;;;8.83;;
72065;SDS011;59939;52.516;13.420;2022-09-29T18:17:13;17.37;;;8.40;;
72065;SDS011;59939;52.516;13.420;2022-09-29T18:20:18;21.93;;;9.87;;
72065;SDS011;59939;52.516;13.420;2022-09-29T18:23:31;18.23;;;9.23;;
72065;SDS011;59939;52.516;13.420;2022-09-29T18:26:37;19.83;;;9.60;;
72065;SDS011;59939;52.516;13.420;2022-09-29T18:29:42;18.33;;;8.57;;
72065;SDS011;59939;52.516;13.420;2022-09-29T18:32:49;18.80;;;10.20;;
72065;SDS011;59939;52.516;13.420;2022-09-29T18:35:56;18.77;;;9.20;;
72065;SDS011;59939;52.516;13.420;2022-09-29T18:39:14;17.03;;;8.73;;
72065;SDS011;59939;52.516;13.420;2022-09-29T18:42:20;20.57;;;9.93;;
72065;SDS011;59939;52.516;13.420;2022-09-29T18:45:35;24.87;;;12.30;;
72065;SDS011;59939;52.516;13.420;2022-09-29T18:48:43;24.00;;;13.60;;
72065;SDS011;59939;52.516;13.420;2022-09-29T18:51:47;23.43;;;11.30;;
72065;SDS011;59939;52.516;13.420;2022-09-29T18:54:55;21.43;;;10.13;;
72065;SDS011;59939;52.516;13.420;2022-09-29T18:57:59;18.53;;;9.57;;
72065;SDS011;59939;52.516;13.420;2022-09-29T19:01:03;21.17;;;10.63;;
72065;SDS011;59939;52.516;13.420;2022-09-29T19:04:15;18.67;;;9.40;;
72065;SDS011;59939;52.516;13.420;2022-09-29T19:07:18;17.70;;;8.37;;
72065;SDS011;59939;52.516;13.420;2022-09-29T19:10:22;16.43;;;8.30;;
72065;SDS011;59939;52.516;13.420;2022-09-29T19:13:27;17.07;;;8.30;;
72065;SDS011;59939;52.516;13.420;2022-09-29T19:16:35;16.57;;;8.40;;
72065;SDS011;59939;52.516;13.420;2022-09-29T19:19:42;18.03;;;8.70;;
72065;SDS011;59939;52.516;13.420;2022-09-29T19:22:48;18.50;;;9.17;;
72065;SDS011;59939;52.516;13.420;2022-09-29T19:25:55;19.23;;;9.37;;
72065;SDS011;59939;52.516;13.420;2022-09-29T19:29:02;18.23;;;9.60;;
72065;SDS011;59939;52.516;13.420;2022-09-29T19:32:09;17.37;;;9.00;;
72065;SDS011;59939;52.516;13.420;2022-09-29T19:35:16;16.07;;;8.00;;
72065;SDS011;59939;52.516;13.420;2022-09-29T19:38:22;15.63;;;8.37;;
72065;SDS011;59939;52.516;13.420;2022-09-29T19:41:33;18.83;;;9.10;;
72065;SDS011;59939;52.516;13.420;2022-09-29T19:44:40;17.53;;;9.83;;
72065;SDS011;59939;52.516;13.420;2022-09-29T19:47:45;18.80;;;10.23;;
72065;SDS011;59939;52.516;13.420;2022-09-29T19:50:56;19.10;;;9.57;;
72065;SDS011;59939;52.516;13.420;2022-09-29T19:54:20;18.03;;;9.70;;
72065;SDS011;59939;52.516;13.420;2022-09-29T19:57:36;17.90;;;9.20;;
72065;SDS011;59939;52.516;13.420;2022-09-29T20:00:54;20.00;;;10.80;;
72065;SDS011;59939;52.516;13.420;2022-09-29T20:03:59;19.83;;;10.47;;
72065;SDS011;59939;52.516;13.420;2022-09-29T20:07:04;20.07;;;10.53;;
72065;SDS011;59939;52.516;13.420;2022-09-29T20:10:16;20.43;;;10.60;;
72065;SDS011;59939;52.516;13.420;2022-09-29T20:13:23;19.27;;;10.57;;
72065;SDS011;59939;52.516;13.420;2022-09-29T20:16:29;19.07;;;9.53;;
72065;SDS011;59939;52.516;13.420;2022-09-29T20:19:36;22.60;;;11.47;;
72065;SDS011;59939;52.516;13.420;2022-09-29T20:22:47;21.83;;;10.90;;
72065;SDS011;59939;52.516;13.420;2022-09-29T20:26:00;20.13;;;10.63;;
72065;SDS011;59939;52.516;13.420;2022-09-29T20:29:04;20.67;;;10.37;;
72065;SDS011;59939;52.516;13.420;2022-09-29T20:32:08;15.50;;;7.63;;
72065;SDS011;59939;52.516;13.420;2022-09-29T20:35:19;23.43;;;11.60;;
72065;SDS011;59939;52.516;13.420;2022-09-29T20:38:23;20.07;;;9.73;;
72065;SDS011;59939;52.516;13.420;2022-09-29T20:41:27;19.80;;;10.93;;
72065;SDS011;59939;52.516;13.420;2022-09-29T20:44:44;19.43;;;10.43;;
72065;SDS011;59939;52.516;13.420;2022-09-29T20:47:48;19.10;;;10.57;;